createdAt,value
2018-09-30T12:53:17.316Z,13.13
2018-09-30T12:55:46.665Z,13.60
2018-09-30T12:58:16.043Z,11.78
2018-09-30T13:00:45.409Z,13.53
2018-09-30T13:03:16.801Z,14.83
2018-09-30T13:05:46.198Z,14.43
2018-09-30T13:08:15.482Z,14.83
2018-09-30T13:10:44.852Z,14.38
2018-09-30T13:13:14.202Z,13.18
2018-09-30T13:15:43.506Z,11.48
2018-09-30T13:18:12.820Z,12.65
2018-09-30T13:20:42.341Z,14.33
2018-09-30T13:23:11.868Z,12.53
2018-09-30T13:25:41.221Z,16.05
2018-09-30T13:28:10.629Z,12.45
2018-09-30T13:30:39.969Z,11.25
2018-09-30T13:33:09.401Z,16.75
2018-09-30T13:35:38.766Z,13.72
2018-09-30T13:38:08.137Z,13.65
2018-09-30T13:40:37.656Z,14.07
2018-09-30T13:43:13.241Z,13.30
2018-09-30T13:45:42.592Z,12.35
2018-09-30T13:48:11.917Z,15.93
2018-09-30T13:50:41.385Z,16.93
2018-09-30T13:53:10.750Z,13.25
2018-09-30T13:55:40.177Z,12.35
2018-09-30T13:58:21.837Z,14.70
2018-09-30T14:00:51.145Z,12.88
2018-09-30T14:03:31.117Z,15.00
2018-09-30T14:06:00.572Z,12.00
2018-09-30T14:08:37.169Z,10.78
2018-09-30T14:11:06.479Z,12.98
2018-09-30T14:13:36.016Z,11.15
2018-09-30T14:16:05.747Z,11.75
2018-09-30T14:18:35.374Z,10.95
2018-09-30T14:21:04.750Z,18.00
2018-09-30T14:23:37.944Z,10.95
2018-09-30T14:26:07.651Z,12.35
2018-09-30T14:28:36.984Z,11.80
2018-09-30T14:31:06.486Z,12.25
2018-09-30T14:33:35.790Z,11.73
2018-09-30T14:36:05.242Z,13.43
2018-09-30T14:38:34.838Z,14.83
2018-09-30T14:41:04.555Z,12.10
2018-09-30T14:43:34.167Z,13.47
2018-09-30T14:46:03.867Z,13.73
2018-09-30T14:48:45.284Z,15.47
2018-09-30T14:51:14.928Z,14.43
2018-09-30T14:53:44.672Z,14.67
2018-09-30T14:56:14.222Z,15.70
2018-09-30T14:58:43.919Z,17.63
2018-09-30T15:01:13.643Z,15.53
2018-09-30T15:03:43.429Z,13.73
2018-09-30T15:06:15.297Z,13.30
2018-09-30T15:08:44.908Z,14.53
2018-09-30T15:11:18.134Z,13.23
2018-09-30T15:13:47.875Z,17.40
2018-09-30T15:16:17.547Z,13.73
2018-09-30T15:18:50.580Z,17.93
2018-09-30T15:21:20.208Z,15.97
2018-09-30T15:23:50.051Z,16.60
2018-09-30T15:26:19.687Z,14.27
2018-09-30T15:28:50.390Z,16.90
2018-09-30T15:31:20.138Z,12.98
2018-09-30T15:33:51.210Z,14.58
2018-09-30T15:36:21.018Z,19.75
2018-09-30T15:38:50.685Z,11.57
2018-09-30T15:41:20.434Z,12.70
2018-09-30T15:43:51.324Z,11.75
2018-09-30T15:46:21.457Z,14.77
2018-09-30T15:48:51.257Z,14.33
2018-09-30T15:51:21.097Z,13.30
2018-09-30T15:54:01.814Z,12.97
2018-09-30T15:56:44.214Z,18.33
2018-09-30T15:59:13.863Z,17.83
2018-09-30T16:01:44.243Z,14.80
2018-09-30T16:04:13.950Z,16.93
2018-09-30T16:06:43.574Z,14.80
2018-09-30T16:09:13.307Z,29.37
2018-09-30T16:11:43.038Z,18.67
2018-09-30T16:14:13.778Z,15.43
2018-09-30T16:16:43.618Z,14.07
2018-09-30T16:19:13.886Z,14.83
2018-09-30T16:21:43.922Z,13.63
2018-09-30T16:24:13.894Z,19.13
2018-09-30T16:26:44.162Z,15.93
2018-09-30T16:29:13.843Z,14.50
2018-09-30T16:31:43.598Z,14.13
2018-09-30T16:34:13.515Z,15.63
2018-09-30T16:36:43.366Z,14.33
2018-09-30T16:39:13.217Z,14.30
2018-09-30T16:41:42.870Z,19.53
2018-09-30T16:44:35.913Z,14.57
2018-09-30T16:47:05.802Z,18.43
2018-09-30T16:49:35.469Z,38.03
2018-09-30T16:52:05.342Z,15.60
2018-09-30T16:54:35.007Z,17.23
2018-09-30T16:57:04.805Z,15.70
2018-09-30T16:59:36.476Z,14.70
2018-09-30T17:02:06.283Z,15.80
2018-09-30T17:04:36.132Z,15.23
2018-09-30T17:07:05.914Z,15.87
2018-09-30T17:09:35.864Z,16.80
2018-09-30T17:12:05.587Z,21.00
2018-09-30T17:14:41.353Z,16.53
2018-09-30T17:17:11.131Z,15.13
2018-09-30T17:19:41.177Z,15.80
2018-09-30T17:22:11.398Z,23.80
2018-09-30T17:24:41.026Z,17.67
2018-09-30T17:27:10.584Z,16.27
2018-09-30T17:29:40.232Z,15.77
2018-09-30T17:32:09.819Z,16.60
2018-09-30T17:34:39.547Z,16.87
2018-09-30T17:37:09.287Z,15.20
2018-09-30T17:39:38.915Z,17.47
2018-09-30T17:42:08.769Z,16.97
2018-09-30T17:44:38.924Z,19.23
2018-09-30T17:47:08.654Z,21.07
2018-09-30T17:49:38.292Z,19.40
2018-09-30T17:52:08.222Z,15.93
2018-09-30T17:54:37.891Z,20.70
2018-09-30T17:57:07.501Z,14.73
2018-09-30T17:59:38.059Z,16.87
2018-09-30T18:02:07.848Z,20.50
2018-09-30T18:04:37.593Z,16.40
2018-09-30T18:07:16.118Z,13.77
2018-09-30T18:10:11.340Z,16.17
2018-09-30T18:12:41.158Z,16.03
2018-09-30T18:15:10.971Z,15.90
2018-09-30T18:17:40.875Z,15.63
2018-09-30T18:20:10.766Z,16.77
2018-09-30T18:22:40.454Z,13.10
2018-09-30T18:25:10.134Z,15.40
2018-09-30T18:27:39.892Z,15.00
2018-09-30T18:30:10.296Z,19.07
2018-09-30T18:32:40.131Z,12.20
2018-09-30T18:35:13.347Z,17.27
2018-09-30T18:37:43.000Z,16.10
2018-09-30T18:40:12.775Z,13.50
2018-09-30T18:42:42.357Z,13.57
2018-09-30T18:45:12.042Z,13.27
2018-09-30T18:47:56.090Z,13.73
2018-09-30T18:50:25.747Z,18.87
2018-09-30T18:52:55.450Z,14.13
2018-09-30T18:55:25.114Z,13.97
2018-09-30T18:57:54.860Z,13.63
2018-09-30T19:00:24.808Z,12.20
2018-09-30T19:02:55.302Z,13.00
2018-09-30T19:05:25.406Z,15.53
2018-09-30T19:07:55.780Z,17.53
2018-09-30T19:10:25.501Z,14.63
2018-09-30T19:13:00.886Z,16.83
2018-09-30T19:15:37.399Z,12.50
2018-09-30T19:18:07.128Z,13.70
2018-09-30T19:20:42.214Z,13.67
2018-09-30T19:23:20.511Z,14.00
2018-09-30T19:25:50.434Z,13.57
2018-09-30T19:28:20.070Z,12.73
2018-09-30T19:30:56.114Z,15.97
2018-09-30T19:33:38.475Z,15.20
2018-09-30T19:36:08.445Z,12.93
2018-09-30T19:38:54.975Z,12.77
2018-09-30T19:41:24.699Z,12.80
2018-09-30T19:43:54.350Z,13.70
2018-09-30T19:46:24.067Z,19.63
2018-09-30T19:48:53.726Z,12.93
2018-09-30T19:51:23.326Z,15.73
2018-09-30T19:53:52.960Z,12.27
2018-09-30T19:56:23.238Z,10.20
2018-09-30T19:58:54.892Z,11.77
2018-09-30T20:01:24.632Z,11.60
2018-09-30T20:03:56.602Z,17.57
2018-09-30T20:06:38.526Z,16.17
2018-09-30T20:09:15.659Z,13.40
2018-09-30T20:11:45.844Z,16.23
2018-09-30T20:14:15.631Z,11.30
2018-09-30T20:16:45.355Z,12.83
2018-09-30T20:19:15.259Z,17.77
2018-09-30T20:21:44.953Z,15.63
2018-09-30T20:24:14.866Z,13.50
2018-09-30T20:26:44.897Z,14.77
2018-09-30T20:29:14.834Z,13.20
2018-09-30T20:31:44.710Z,11.20
2018-09-30T20:34:14.894Z,11.97
2018-09-30T20:36:44.492Z,11.37
2018-09-30T20:39:15.421Z,13.30
2018-09-30T20:41:45.115Z,11.37
2018-09-30T20:44:14.883Z,10.30
2018-09-30T20:46:44.565Z,10.77
2018-09-30T20:49:14.177Z,13.80
2018-09-30T20:51:44.350Z,13.47
2018-09-30T20:54:14.063Z,12.13
2018-09-30T20:56:46.089Z,11.77
2018-09-30T20:59:16.022Z,14.57
2018-09-30T21:01:45.691Z,12.87
2018-09-30T21:04:15.471Z,12.63
2018-09-30T21:06:45.848Z,9.73
2018-09-30T21:09:26.489Z,9.73
2018-09-30T21:11:56.126Z,8.83
2018-09-30T21:14:25.766Z,7.73
2018-09-30T21:16:55.399Z,6.67
2018-09-30T21:19:25.061Z,7.83
2018-09-30T21:21:54.829Z,6.67
2018-09-30T21:24:24.508Z,6.97
2018-09-30T21:27:04.675Z,5.70
2018-09-30T21:29:34.266Z,5.47
2018-09-30T21:32:03.878Z,6.10
2018-09-30T21:34:33.613Z,6.23
2018-09-30T21:37:07.589Z,5.20
2018-09-30T21:39:37.195Z,5.67
2018-09-30T21:42:06.858Z,5.93
2018-09-30T21:44:53.058Z,8.40
2018-09-30T21:47:22.777Z,7.27
2018-09-30T21:49:52.462Z,5.80
2018-09-30T21:52:22.205Z,4.53
2018-09-30T21:54:51.899Z,4.83
2018-09-30T21:57:21.770Z,4.33
2018-09-30T21:59:51.454Z,6.07
2018-09-30T22:02:21.174Z,4.27
2018-09-30T22:04:50.825Z,6.30
2018-09-30T22:07:21.544Z,4.27
2018-09-30T22:09:51.257Z,5.17
2018-09-30T22:12:20.951Z,7.37
2018-09-30T22:14:50.709Z,4.80
2018-09-30T22:17:43.642Z,6.03
2018-09-30T22:20:13.379Z,4.73
2018-09-30T22:22:43.074Z,4.83
2018-09-30T22:25:12.758Z,5.30
2018-09-30T22:27:43.970Z,4.20
2018-09-30T22:30:13.903Z,5.00
2018-09-30T22:32:43.663Z,3.70
2018-09-30T22:35:13.226Z,7.40
2018-09-30T22:37:54.118Z,5.07
2018-09-30T22:40:23.706Z,3.87
2018-09-30T22:42:53.018Z,5.53
2018-09-30T22:45:22.345Z,5.17
2018-09-30T22:47:51.726Z,3.30
2018-09-30T22:50:21.098Z,4.13
2018-09-30T22:52:50.412Z,6.63
2018-09-30T22:55:20.810Z,3.50
2018-09-30T22:57:50.384Z,4.00
2018-09-30T23:00:20.071Z,4.20
2018-09-30T23:02:49.752Z,7.87
2018-09-30T23:05:19.448Z,4.13
2018-09-30T23:07:49.060Z,4.60
2018-09-30T23:10:18.822Z,4.87
2018-09-30T23:12:48.448Z,3.57
2018-09-30T23:15:18.162Z,4.93
2018-09-30T23:17:47.861Z,5.90
2018-09-30T23:20:18.698Z,4.80
2018-09-30T23:22:48.301Z,3.73
2018-09-30T23:25:17.895Z,3.47
2018-09-30T23:27:47.557Z,4.20
2018-09-30T23:30:17.254Z,4.77
2018-09-30T23:32:46.887Z,3.63
2018-09-30T23:35:16.546Z,5.40
2018-09-30T23:37:46.259Z,4.70
2018-09-30T23:40:15.826Z,3.27
2018-09-30T23:42:45.477Z,3.83
2018-09-30T23:45:15.125Z,3.17
2018-09-30T23:47:44.782Z,6.03
2018-09-30T23:50:14.534Z,4.20
2018-09-30T23:52:44.302Z,5.50
2018-09-30T23:55:13.997Z,2.90
2018-09-30T23:57:43.721Z,3.90
